sensor_id;sensor_type;location;lat;lon;timestamp;P1;durP1;ratioP1;P2;durP2;ratioP2
3704;SDS011;1868;48.918;9.438;2023-03-18T00:01:09;9.83;;;6.33;;
3704;SDS011;1868;48.918;9.438;2023-03-18T00:03:39;7.50;;;5.80;;
3704;SDS011;1868;48.918;9.438;2023-03-18T00:06:08;10.23;;;6.13;;
3704;SDS011;1868;48.918;9.438;2023-03-18T00:08:39;8.17;;;5.67;;
3704;SDS011;1868;48.918;9.438;2023-03-18T00:11:08;14.53;;;5.77;;
3704;SDS011;1868;48.918;9.438;2023-03-18T00:13:38;8.50;;;5.60;;
3704;SDS011;1868;48.918;9.438;2023-03-18T00:16:08;10.17;;;5.30;;
3704;SDS011;1868;48.918;9.438;2023-03-18T00:18:38;7.83;;;6.33;;
3704;SDS011;1868;48.918;9.438;2023-03-18T00:21:08;8.03;;;5.70;;
3704;SDS011;1868;48.918;9.438;2023-03-18T00:23:36;5.80;;;5.07;;
3704;SDS011;1868;48.918;9.438;2023-03-18T00:26:05;8.80;;;5.70;;
3704;SDS011;1868;48.918;9.438;2023-03-18T00:28:34;4.63;;;4.23;;
3704;SDS011;1868;48.918;9.438;2023-03-18T00:31:04;10.97;;;5.90;;
3704;SDS011;1868;48.918;9.438;2023-03-18T00:33:35;8.87;;;6.20;;
3704;SDS011;1868;48.918;9.438;2023-03-18T00:36:07;7.40;;;5.80;;
3704;SDS011;1868;48.918;9.438;2023-03-18T00:38:39;8.70;;;5.33;;
3704;SDS011;1868;48.918;9.438;2023-03-18T00:41:08;9.73;;;6.23;;
3704;SDS011;1868;48.918;9.438;2023-03-18T00:43:42;8.40;;;5.73;;
3704;SDS011;1868;48.918;9.438;2023-03-18T00:46:18;6.80;;;5.67;;
3704;SDS011;1868;48.918;9.438;2023-03-18T00:48:50;13.33;;;7.03;;
3704;SDS011;1868;48.918;9.438;2023-03-18T00:51:22;10.00;;;6.00;;
3704;SDS011;1868;48.918;9.438;2023-03-18T00:53:54;8.33;;;5.33;;
3704;SDS011;1868;48.918;9.438;2023-03-18T00:56:24;7.67;;;5.23;;
3704;SDS011;1868;48.918;9.438;2023-03-18T00:58:54;7.80;;;5.63;;
3704;SDS011;1868;48.918;9.438;2023-03-18T01:01:23;5.80;;;4.70;;
3704;SDS011;1868;48.918;9.438;2023-03-18T01:03:53;8.13;;;5.50;;
3704;SDS011;1868;48.918;9.438;2023-03-18T01:06:24;7.83;;;5.33;;
3704;SDS011;1868;48.918;9.438;2023-03-18T01:08:54;10.20;;;5.10;;
3704;SDS011;1868;48.918;9.438;2023-03-18T01:11:25;6.93;;;4.87;;
3704;SDS011;1868;48.918;9.438;2023-03-18T01:13:54;7.53;;;5.47;;
3704;SDS011;1868;48.918;9.438;2023-03-18T01:16:23;7.60;;;5.50;;
3704;SDS011;1868;48.918;9.438;2023-03-18T01:18:51;6.97;;;5.30;;
3704;SDS011;1868;48.918;9.438;2023-03-18T01:21:20;8.10;;;5.57;;
3704;SDS011;1868;48.918;9.438;2023-03-18T01:23:54;8.63;;;6.17;;
3704;SDS011;1868;48.918;9.438;2023-03-18T01:26:23;12.73;;;6.70;;
3704;SDS011;1868;48.918;9.438;2023-03-18T01:28:54;9.83;;;6.97;;
3704;SDS011;1868;48.918;9.438;2023-03-18T01:31:23;8.80;;;6.80;;
3704;SDS011;1868;48.918;9.438;2023-03-18T01:33:56;10.40;;;6.73;;
3704;SDS011;1868;48.918;9.438;2023-03-18T01:36:27;11.80;;;7.20;;
3704;SDS011;1868;48.918;9.438;2023-03-18T01:39:03;10.60;;;7.03;;
3704;SDS011;1868;48.918;9.438;2023-03-18T01:41:33;12.17;;;7.33;;
3704;SDS011;1868;48.918;9.438;2023-03-18T01:44:03;9.43;;;6.57;;
3704;SDS011;1868;48.918;9.438;2023-03-18T01:46:37;9.50;;;6.80;;
3704;SDS011;1868;48.918;9.438;2023-03-18T01:49:09;9.93;;;5.87;;
3704;SDS011;1868;48.918;9.438;2023-03-18T01:51:44;8.93;;;5.93;;
3704;SDS011;1868;48.918;9.438;2023-03-18T01:54:17;6.80;;;5.67;;
3704;SDS011;1868;48.918;9.438;2023-03-18T01:56:46;9.77;;;5.60;;
3704;SDS011;1868;48.918;9.438;2023-03-18T01:59:17;7.70;;;5.57;;
3704;SDS011;1868;48.918;9.438;2023-03-18T02:01:47;7.47;;;5.37;;
3704;SDS011;1868;48.918;9.438;2023-03-18T02:04:22;6.93;;;5.10;;
3704;SDS011;1868;48.918;9.438;2023-03-18T02:06:55;8.70;;;5.87;;
3704;SDS011;1868;48.918;9.438;2023-03-18T02:09:24;8.43;;;5.27;;
3704;SDS011;1868;48.918;9.438;2023-03-18T02:11:53;8.30;;;6.00;;
3704;SDS011;1868;48.918;9.438;2023-03-18T02:14:23;14.60;;;7.13;;
3704;SDS011;1868;48.918;9.438;2023-03-18T02:16:54;6.90;;;5.30;;
3704;SDS011;1868;48.918;9.438;2023-03-18T02:19:32;12.00;;;6.97;;
3704;SDS011;1868;48.918;9.438;2023-03-18T02:22:23;11.80;;;6.23;;
3704;SDS011;1868;48.918;9.438;2023-03-18T02:25:03;10.50;;;5.80;;
3704;SDS011;1868;48.918;9.438;2023-03-18T02:27:47;11.57;;;6.20;;
3704;SDS011;1868;48.918;9.438;2023-03-18T02:30:21;7.50;;;5.40;;
3704;SDS011;1868;48.918;9.438;2023-03-18T02:32:55;9.93;;;6.20;;
3704;SDS011;1868;48.918;9.438;2023-03-18T02:35:26;8.83;;;5.17;;
3704;SDS011;1868;48.918;9.438;2023-03-18T02:37:58;7.87;;;4.67;;
3704;SDS011;1868;48.918;9.438;2023-03-18T02:40:27;5.83;;;4.50;;
3704;SDS011;1868;48.918;9.438;2023-03-18T02:43:15;7.37;;;5.23;;
3704;SDS011;1868;48.918;9.438;2023-03-18T02:46:13;6.60;;;4.33;;
3704;SDS011;1868;48.918;9.438;2023-03-18T02:48:55;10.40;;;5.87;;
3704;SDS011;1868;48.918;9.438;2023-03-18T02:51:25;7.10;;;5.03;;
3704;SDS011;1868;48.918;9.438;2023-03-18T02:53:56;7.77;;;5.63;;
3704;SDS011;1868;48.918;9.438;2023-03-18T02:56:29;11.70;;;6.23;;
3704;SDS011;1868;48.918;9.438;2023-03-18T02:58:58;9.80;;;6.00;;
3704;SDS011;1868;48.918;9.438;2023-03-18T03:01:27;13.47;;;6.07;;
3704;SDS011;1868;48.918;9.438;2023-03-18T03:03:56;10.70;;;6.47;;
3704;SDS011;1868;48.918;9.438;2023-03-18T03:06:24;13.57;;;7.17;;
3704;SDS011;1868;48.918;9.438;2023-03-18T03:08:53;12.43;;;6.10;;
3704;SDS011;1868;48.918;9.438;2023-03-18T03:11:23;12.63;;;7.10;;
3704;SDS011;1868;48.918;9.438;2023-03-18T03:13:56;7.73;;;6.07;;
3704;SDS011;1868;48.918;9.438;2023-03-18T03:16:26;7.80;;;5.73;;
3704;SDS011;1868;48.918;9.438;2023-03-18T03:18:55;7.47;;;5.70;;
3704;SDS011;1868;48.918;9.438;2023-03-18T03:21:24;8.10;;;5.93;;
3704;SDS011;1868;48.918;9.438;2023-03-18T03:23:53;11.77;;;6.77;;
3704;SDS011;1868;48.918;9.438;2023-03-18T03:26:22;9.07;;;5.80;;
3704;SDS011;1868;48.918;9.438;2023-03-18T03:28:50;8.93;;;6.10;;
3704;SDS011;1868;48.918;9.438;2023-03-18T03:31:19;7.20;;;5.23;;
3704;SDS011;1868;48.918;9.438;2023-03-18T03:33:49;11.63;;;6.30;;
3704;SDS011;1868;48.918;9.438;2023-03-18T03:36:18;7.87;;;5.30;;
3704;SDS011;1868;48.918;9.438;2023-03-18T03:38:46;5.90;;;4.73;;
3704;SDS011;1868;48.918;9.438;2023-03-18T03:41:15;7.80;;;5.43;;
3704;SDS011;1868;48.918;9.438;2023-03-18T03:43:47;9.00;;;4.90;;
3704;SDS011;1868;48.918;9.438;2023-03-18T03:46:15;7.80;;;4.87;;
3704;SDS011;1868;48.918;9.438;2023-03-18T03:48:44;8.03;;;5.17;;
3704;SDS011;1868;48.918;9.438;2023-03-18T03:51:16;6.13;;;5.07;;
3704;SDS011;1868;48.918;9.438;2023-03-18T03:53:44;11.03;;;5.97;;
3704;SDS011;1868;48.918;9.438;2023-03-18T03:56:13;8.23;;;5.00;;
3704;SDS011;1868;48.918;9.438;2023-03-18T03:58:42;8.67;;;4.43;;
3704;SDS011;1868;48.918;9.438;2023-03-18T04:01:11;7.83;;;5.00;;
3704;SDS011;1868;48.918;9.438;2023-03-18T04:03:41;5.40;;;4.67;;
3704;SDS011;1868;48.918;9.438;2023-03-18T04:06:10;6.73;;;4.40;;
3704;SDS011;1868;48.918;9.438;2023-03-18T04:08:46;10.80;;;4.83;;
3704;SDS011;1868;48.918;9.438;2023-03-18T04:11:15;10.27;;;6.03;;
3704;SDS011;1868;48.918;9.438;2023-03-18T04:13:43;8.80;;;4.90;;
3704;SDS011;1868;48.918;9.438;2023-03-18T04:16:12;7.60;;;4.73;;
3704;SDS011;1868;48.918;9.438;2023-03-18T04:18:42;6.40;;;4.60;;
3704;SDS011;1868;48.918;9.438;2023-03-18T04:21:11;6.20;;;4.90;;
3704;SDS011;1868;48.918;9.438;2023-03-18T04:23:49;4.37;;;3.70;;
3704;SDS011;1868;48.918;9.438;2023-03-18T04:26:19;6.13;;;4.63;;
3704;SDS011;1868;48.918;9.438;2023-03-18T04:28:48;6.73;;;5.07;;
3704;SDS011;1868;48.918;9.438;2023-03-18T04:31:17;12.10;;;5.67;;
3704;SDS011;1868;48.918;9.438;2023-03-18T04:33:45;6.70;;;4.70;;
3704;SDS011;1868;48.918;9.438;2023-03-18T04:36:13;7.50;;;4.70;;
3704;SDS011;1868;48.918;9.438;2023-03-18T04:38:42;7.20;;;5.87;;
3704;SDS011;1868;48.918;9.438;2023-03-18T04:41:12;7.83;;;5.30;;
3704;SDS011;1868;48.918;9.438;2023-03-18T04:43:40;8.00;;;4.97;;
3704;SDS011;1868;48.918;9.438;2023-03-18T04:46:10;5.13;;;4.20;;
3704;SDS011;1868;48.918;9.438;2023-03-18T04:48:38;7.47;;;5.07;;
3704;SDS011;1868;48.918;9.438;2023-03-18T04:51:07;4.30;;;3.80;;
3704;SDS011;1868;48.918;9.438;2023-03-18T04:53:38;8.57;;;4.73;;
3704;SDS011;1868;48.918;9.438;2023-03-18T04:56:08;9.37;;;5.40;;
3704;SDS011;1868;48.918;9.438;2023-03-18T04:58:45;5.00;;;4.40;;
3704;SDS011;1868;48.918;9.438;2023-03-18T05:01:17;7.17;;;4.77;;
3704;SDS011;1868;48.918;9.438;2023-03-18T05:03:46;9.30;;;4.53;;
3704;SDS011;1868;48.918;9.438;2023-03-18T05:06:19;6.43;;;4.63;;
3704;SDS011;1868;48.918;9.438;2023-03-18T05:08:54;5.47;;;4.73;;
3704;SDS011;1868;48.918;9.438;2023-03-18T05:11:27;9.80;;;4.80;;
3704;SDS011;1868;48.918;9.438;2023-03-18T05:14:00;7.30;;;4.80;;
3704;SDS011;1868;48.918;9.438;2023-03-18T05:16:36;5.50;;;4.30;;
3704;SDS011;1868;48.918;9.438;2023-03-18T05:19:05;13.63;;;5.27;;
3704;SDS011;1868;48.918;9.438;2023-03-18T05:21:37;6.83;;;4.83;;
3704;SDS011;1868;48.918;9.438;2023-03-18T05:24:07;8.60;;;4.83;;
3704;SDS011;1868;48.918;9.438;2023-03-18T05:26:39;7.50;;;4.50;;
3704;SDS011;1868;48.918;9.438;2023-03-18T05:29:09;9.33;;;5.03;;
3704;SDS011;1868;48.918;9.438;2023-03-18T05:31:55;7.07;;;4.50;;
3704;SDS011;1868;48.918;9.438;2023-03-18T05:34:24;8.23;;;5.87;;
3704;SDS011;1868;48.918;9.438;2023-03-18T05:36:53;5.97;;;4.50;;
3704;SDS011;1868;48.918;9.438;2023-03-18T05:39:23;5.87;;;4.33;;
3704;SDS011;1868;48.918;9.438;2023-03-18T05:41:52;5.80;;;4.50;;
3704;SDS011;1868;48.918;9.438;2023-03-18T05:44:26;5.13;;;3.97;;
3704;SDS011;1868;48.918;9.438;2023-03-18T05:46:58;4.47;;;4.00;;
3704;SDS011;1868;48.918;9.438;2023-03-18T05:50:02;6.40;;;3.83;;
3704;SDS011;1868;48.918;9.438;2023-03-18T05:52:32;4.70;;;3.93;;
3704;SDS011;1868;48.918;9.438;2023-03-18T05:55:04;5.97;;;3.73;;
3704;SDS011;1868;48.918;9.438;2023-03-18T05:57:36;8.70;;;4.50;;
3704;SDS011;1868;48.918;9.438;2023-03-18T06:00:09;7.40;;;4.10;;
3704;SDS011;1868;48.918;9.438;2023-03-18T06:02:43;5.30;;;4.10;;
3704;SDS011;1868;48.918;9.438;2023-03-18T06:05:14;6.77;;;4.40;;
3704;SDS011;1868;48.918;9.438;2023-03-18T06:07:44;5.80;;;4.37;;
3704;SDS011;1868;48.918;9.438;2023-03-18T06:10:13;4.50;;;3.67;;
3704;SDS011;1868;48.918;9.438;2023-03-18T06:12:43;4.10;;;3.60;;
3704;SDS011;1868;48.918;9.438;2023-03-18T06:15:13;6.93;;;4.53;;
3704;SDS011;1868;48.918;9.438;2023-03-18T06:17:42;11.83;;;4.47;;
3704;SDS011;1868;48.918;9.438;2023-03-18T06:20:11;6.33;;;4.40;;
3704;SDS011;1868;48.918;9.438;2023-03-18T06:22:41;10.43;;;5.60;;
3704;SDS011;1868;48.918;9.438;2023-03-18T06:25:15;9.17;;;5.07;;
3704;SDS011;1868;48.918;9.438;2023-03-18T06:27:47;9.20;;;5.20;;
3704;SDS011;1868;48.918;9.438;2023-03-18T06:30:22;8.07;;;5.73;;
3704;SDS011;1868;48.918;9.438;2023-03-18T06:32:50;10.80;;;8.17;;
3704;SDS011;1868;48.918;9.438;2023-03-18T06:35:21;13.10;;;9.80;;
3704;SDS011;1868;48.918;9.438;2023-03-18T06:37:52;26.23;;;17.73;;
3704;SDS011;1868;48.918;9.438;2023-03-18T06:40:22;33.30;;;23.00;;
3704;SDS011;1868;48.918;9.438;2023-03-18T06:42:52;27.77;;;20.67;;
3704;SDS011;1868;48.918;9.438;2023-03-18T06:45:31;15.90;;;11.03;;
3704;SDS011;1868;48.918;9.438;2023-03-18T06:48:04;10.10;;;7.93;;
3704;SDS011;1868;48.918;9.438;2023-03-18T06:50:38;14.00;;;7.63;;
3704;SDS011;1868;48.918;9.438;2023-03-18T06:53:14;9.67;;;6.20;;
3704;SDS011;1868;48.918;9.438;2023-03-18T06:55:43;5.97;;;5.20;;
3704;SDS011;1868;48.918;9.438;2023-03-18T06:58:12;9.83;;;6.20;;
3704;SDS011;1868;48.918;9.438;2023-03-18T07:00:54;7.07;;;4.70;;
3704;SDS011;1868;48.918;9.438;2023-03-18T07:03:26;7.93;;;4.87;;
3704;SDS011;1868;48.918;9.438;2023-03-18T07:05:54;6.60;;;4.87;;
3704;SDS011;1868;48.918;9.438;2023-03-18T07:08:23;5.43;;;4.60;;
3704;SDS011;1868;48.918;9.438;2023-03-18T07:10:52;7.07;;;3.90;;
3704;SDS011;1868;48.918;9.438;2023-03-18T07:13:25;9.23;;;4.00;;
3704;SDS011;1868;48.918;9.438;2023-03-18T07:15:55;6.07;;;3.40;;
3704;SDS011;1868;48.918;9.438;2023-03-18T07:18:25;6.03;;;3.67;;
3704;SDS011;1868;48.918;9.438;2023-03-18T07:20:54;5.27;;;4.10;;
3704;SDS011;1868;48.918;9.438;2023-03-18T07:23:22;5.20;;;4.00;;
3704;SDS011;1868;48.918;9.438;2023-03-18T07:25:51;6.63;;;3.40;;
3704;SDS011;1868;48.918;9.438;2023-03-18T07:28:20;5.33;;;3.60;;
3704;SDS011;1868;48.918;9.438;2023-03-18T07:30:49;4.53;;;3.03;;
3704;SDS011;1868;48.918;9.438;2023-03-18T07:33:21;4.80;;;3.07;;
3704;SDS011;1868;48.918;9.438;2023-03-18T07:35:49;7.57;;;3.53;;
3704;SDS011;1868;48.918;9.438;2023-03-18T07:38:17;5.07;;;3.93;;
3704;SDS011;1868;48.918;9.438;2023-03-18T07:40:45;8.50;;;3.70;;
3704;SDS011;1868;48.918;9.438;2023-03-18T07:43:13;5.90;;;3.70;;
3704;SDS011;1868;48.918;9.438;2023-03-18T07:45:42;4.87;;;3.27;;
3704;SDS011;1868;48.918;9.438;2023-03-18T07:48:11;4.60;;;4.07;;
3704;SDS011;1868;48.918;9.438;2023-03-18T07:50:40;3.90;;;3.20;;
3704;SDS011;1868;48.918;9.438;2023-03-18T07:53:09;5.43;;;3.17;;
3704;SDS011;1868;48.918;9.438;2023-03-18T07:55:37;2.80;;;2.60;;
3704;SDS011;1868;48.918;9.438;2023-03-18T07:58:07;4.23;;;2.27;;
3704;SDS011;1868;48.918;9.438;2023-03-18T08:00:35;5.60;;;2.83;;
3704;SDS011;1868;48.918;9.438;2023-03-18T08:03:03;6.60;;;3.03;;
3704;SDS011;1868;48.918;9.438;2023-03-18T08:05:32;4.43;;;2.83;;
3704;SDS011;1868;48.918;9.438;2023-03-18T08:08:02;4.50;;;3.37;;
3704;SDS011;1868;48.918;9.438;2023-03-18T08:10:30;6.33;;;2.67;;
3704;SDS011;1868;48.918;9.438;2023-03-18T08:12:59;3.20;;;2.80;;
3704;SDS011;1868;48.918;9.438;2023-03-18T08:15:28;4.27;;;3.00;;
3704;SDS011;1868;48.918;9.438;2023-03-18T08:17:57;2.70;;;2.40;;
3704;SDS011;1868;48.918;9.438;2023-03-18T08:20:25;3.10;;;2.80;;
3704;SDS011;1868;48.918;9.438;2023-03-18T08:22:54;3.07;;;2.40;;
3704;SDS011;1868;48.918;9.438;2023-03-18T08:25:23;2.70;;;2.37;;
3704;SDS011;1868;48.918;9.438;2023-03-18T08:27:52;3.30;;;2.90;;
3704;SDS011;1868;48.918;9.438;2023-03-18T08:30:20;6.63;;;3.77;;
3704;SDS011;1868;48.918;9.438;2023-03-18T08:32:50;3.90;;;3.53;;
3704;SDS011;1868;48.918;9.438;2023-03-18T08:35:18;4.27;;;3.03;;
3704;SDS011;1868;48.918;9.438;2023-03-18T08:37:47;6.00;;;3.20;;
3704;SDS011;1868;48.918;9.438;2023-03-18T08:40:16;4.03;;;2.70;;
3704;SDS011;1868;48.918;9.438;2023-03-18T08:42:47;3.17;;;2.40;;
3704;SDS011;1868;48.918;9.438;2023-03-18T08:45:15;1.93;;;1.83;;
3704;SDS011;1868;48.918;9.438;2023-03-18T08:47:43;2.00;;;1.77;;
3704;SDS011;1868;48.918;9.438;2023-03-18T08:50:11;4.10;;;2.00;;
3704;SDS011;1868;48.918;9.438;2023-03-18T08:52:40;1.77;;;1.67;;
3704;SDS011;1868;48.918;9.438;2023-03-18T08:55:08;4.10;;;1.30;;
3704;SDS011;1868;48.918;9.438;2023-03-18T08:57:37;4.17;;;1.13;;
3704;SDS011;1868;48.918;9.438;2023-03-18T09:00:07;1.23;;;1.13;;
3704;SDS011;1868;48.918;9.438;2023-03-18T09:02:37;1.67;;;1.47;;
3704;SDS011;1868;48.918;9.438;2023-03-18T09:05:06;1.83;;;1.47;;
3704;SDS011;1868;48.918;9.438;2023-03-18T09:07:34;4.37;;;1.30;;
3704;SDS011;1868;48.918;9.438;2023-03-18T09:10:03;1.10;;;1.10;;
3704;SDS011;1868;48.918;9.438;2023-03-18T09:12:32;3.73;;;1.23;;
3704;SDS011;1868;48.918;9.438;2023-03-18T09:15:01;4.07;;;1.30;;
3704;SDS011;1868;48.918;9.438;2023-03-18T09:17:32;2.10;;;1.40;;
3704;SDS011;1868;48.918;9.438;2023-03-18T09:20:20;1.03;;;0.90;;
3704;SDS011;1868;48.918;9.438;2023-03-18T09:22:49;2.23;;;1.07;;
3704;SDS011;1868;48.918;9.438;2023-03-18T09:25:17;2.33;;;0.80;;
3704;SDS011;1868;48.918;9.438;2023-03-18T09:27:46;1.17;;;1.17;;
3704;SDS011;1868;48.918;9.438;2023-03-18T09:30:14;1.63;;;1.33;;
3704;SDS011;1868;48.918;9.438;2023-03-18T09:32:44;1.67;;;1.07;;
3704;SDS011;1868;48.918;9.438;2023-03-18T09:35:12;1.93;;;1.00;;
3704;SDS011;1868;48.918;9.438;2023-03-18T09:37:41;3.03;;;1.17;;
3704;SDS011;1868;48.918;9.438;2023-03-18T09:40:11;3.70;;;0.90;;
3704;SDS011;1868;48.918;9.438;2023-03-18T09:42:53;1.20;;;1.10;;
3704;SDS011;1868;48.918;9.438;2023-03-18T09:45:29;1.57;;;0.77;;
3704;SDS011;1868;48.918;9.438;2023-03-18T09:48:12;1.90;;;1.03;;
3704;SDS011;1868;48.918;9.438;2023-03-18T09:51:08;1.00;;;0.60;;
3704;SDS011;1868;48.918;9.438;2023-03-18T09:53:49;1.33;;;0.80;;
3704;SDS011;1868;48.918;9.438;2023-03-18T09:56:21;1.67;;;1.30;;
3704;SDS011;1868;48.918;9.438;2023-03-18T09:58:55;4.73;;;1.53;;
3704;SDS011;1868;48.918;9.438;2023-03-18T10:01:29;2.57;;;1.30;;
3704;SDS011;1868;48.918;9.438;2023-03-18T10:04:04;3.90;;;1.17;;
3704;SDS011;1868;48.918;9.438;2023-03-18T10:06:39;0.90;;;0.90;;
3704;SDS011;1868;48.918;9.438;2023-03-18T10:09:12;1.03;;;0.90;;
3704;SDS011;1868;48.918;9.438;2023-03-18T10:11:47;1.00;;;0.90;;
3704;SDS011;1868;48.918;9.438;2023-03-18T10:14:23;1.43;;;0.90;;
3704;SDS011;1868;48.918;9.438;2023-03-18T10:17:05;1.13;;;1.07;;
3704;SDS011;1868;48.918;9.438;2023-03-18T10:19:45;1.90;;;1.10;;
3704;SDS011;1868;48.918;9.438;2023-03-18T10:22:20;1.97;;;0.93;;
3704;SDS011;1868;48.918;9.438;2023-03-18T10:25:12;1.33;;;0.90;;
3704;SDS011;1868;48.918;9.438;2023-03-18T10:27:48;0.73;;;0.73;;
3704;SDS011;1868;48.918;9.438;2023-03-18T10:30:46;3.10;;;1.00;;
3704;SDS011;1868;48.918;9.438;2023-03-18T10:33:28;1.47;;;0.80;;
3704;SDS011;1868;48.918;9.438;2023-03-18T10:36:07;2.73;;;1.20;;
3704;SDS011;1868;48.918;9.438;2023-03-18T10:38:45;1.47;;;0.93;;
3704;SDS011;1868;48.918;9.438;2023-03-18T10:41:18;1.23;;;0.90;;
3704;SDS011;1868;48.918;9.438;2023-03-18T10:43:52;1.07;;;0.73;;
3704;SDS011;1868;48.918;9.438;2023-03-18T10:46:22;0.97;;;0.97;;
3704;SDS011;1868;48.918;9.438;2023-03-18T10:48:54;2.40;;;1.40;;
3704;SDS011;1868;48.918;9.438;2023-03-18T10:51:29;2.80;;;1.20;;
3704;SDS011;1868;48.918;9.438;2023-03-18T10:54:04;1.37;;;1.10;;
3704;SDS011;1868;48.918;9.438;2023-03-18T10:56:37;1.40;;;1.33;;
3704;SDS011;1868;48.918;9.438;2023-03-18T10:59:12;1.40;;;1.30;;
3704;SDS011;1868;48.918;9.438;2023-03-18T11:01:46;1.20;;;1.10;;
3704;SDS011;1868;48.918;9.438;2023-03-18T11:04:20;1.17;;;1.07;;
3704;SDS011;1868;48.918;9.438;2023-03-18T11:06:54;3.50;;;1.10;;
3704;SDS011;1868;48.918;9.438;2023-03-18T11:09:28;2.60;;;1.00;;
3704;SDS011;1868;48.918;9.438;2023-03-18T11:12:01;1.43;;;1.00;;
3704;SDS011;1868;48.918;9.438;2023-03-18T11:14:32;2.93;;;1.20;;
3704;SDS011;1868;48.918;9.438;2023-03-18T11:17:03;0.90;;;0.90;;
3704;SDS011;1868;48.918;9.438;2023-03-18T11:19:44;2.00;;;1.23;;
3704;SDS011;1868;48.918;9.438;2023-03-18T11:22:17;1.60;;;1.50;;
3704;SDS011;1868;48.918;9.438;2023-03-18T11:24:59;1.43;;;1.10;;
3704;SDS011;1868;48.918;9.438;2023-03-18T11:27:37;1.27;;;1.00;;
3704;SDS011;1868;48.918;9.438;2023-03-18T11:30:12;0.83;;;0.83;;
3704;SDS011;1868;48.918;9.438;2023-03-18T11:33:02;1.67;;;1.13;;
3704;SDS011;1868;48.918;9.438;2023-03-18T11:35:35;2.87;;;1.47;;
3704;SDS011;1868;48.918;9.438;2023-03-18T11:38:14;1.67;;;1.00;;
3704;SDS011;1868;48.918;9.438;2023-03-18T11:40:45;2.63;;;0.83;;
3704;SDS011;1868;48.918;9.438;2023-03-18T11:43:18;2.30;;;1.00;;
3704;SDS011;1868;48.918;9.438;2023-03-18T11:45:49;1.40;;;1.00;;
3704;SDS011;1868;48.918;9.438;2023-03-18T11:48:28;0.80;;;0.80;;
3704;SDS011;1868;48.918;9.438;2023-03-18T11:51:12;1.53;;;1.10;;
3704;SDS011;1868;48.918;9.438;2023-03-18T11:54:16;1.10;;;1.00;;
3704;SDS011;1868;48.918;9.438;2023-03-18T11:57:00;1.30;;;1.20;;
3704;SDS011;1868;48.918;9.438;2023-03-18T11:59:38;2.90;;;0.87;;
3704;SDS011;1868;48.918;9.438;2023-03-18T12:02:29;1.50;;;0.93;;
3704;SDS011;1868;48.918;9.438;2023-03-18T12:08:14;0.60;;;0.60;;
3704;SDS011;1868;48.918;9.438;2023-03-18T12:10:59;0.97;;;0.80;;
3704;SDS011;1868;48.918;9.438;2023-03-18T12:13:48;1.30;;;1.20;;
3704;SDS011;1868;48.918;9.438;2023-03-18T12:16:30;0.90;;;0.80;;
3704;SDS011;1868;48.918;9.438;2023-03-18T12:19:15;1.03;;;0.90;;
3704;SDS011;1868;48.918;9.438;2023-03-18T12:22:28;2.97;;;1.13;;
3704;SDS011;1868;48.918;9.438;2023-03-18T12:25:22;0.87;;;0.80;;
3704;SDS011;1868;48.918;9.438;2023-03-18T12:28:22;0.97;;;0.90;;
3704;SDS011;1868;48.918;9.438;2023-03-18T12:31:27;1.37;;;1.00;;
3704;SDS011;1868;48.918;9.438;2023-03-18T12:34:22;1.37;;;0.90;;
3704;SDS011;1868;48.918;9.438;2023-03-18T12:37:12;1.00;;;0.90;;
3704;SDS011;1868;48.918;9.438;2023-03-18T12:42:51;1.10;;;0.80;;
3704;SDS011;1868;48.918;9.438;2023-03-18T12:45:33;1.93;;;1.20;;
3704;SDS011;1868;48.918;9.438;2023-03-18T12:48:06;1.00;;;0.80;;
3704;SDS011;1868;48.918;9.438;2023-03-18T12:50:41;1.13;;;0.90;;
3704;SDS011;1868;48.918;9.438;2023-03-18T12:53:16;3.00;;;0.83;;
3704;SDS011;1868;48.918;9.438;2023-03-18T12:55:51;0.87;;;0.87;;
3704;SDS011;1868;48.918;9.438;2023-03-18T12:58:23;2.80;;;0.80;;
3704;SDS011;1868;48.918;9.438;2023-03-18T13:00:57;3.33;;;1.13;;
3704;SDS011;1868;48.918;9.438;2023-03-18T13:03:32;1.30;;;0.90;;
3704;SDS011;1868;48.918;9.438;2023-03-18T13:06:04;2.40;;;0.90;;
3704;SDS011;1868;48.918;9.438;2023-03-18T13:08:45;2.00;;;0.87;;
3704;SDS011;1868;48.918;9.438;2023-03-18T13:11:32;3.30;;;1.00;;
3704;SDS011;1868;48.918;9.438;2023-03-18T13:14:13;2.43;;;0.90;;
3704;SDS011;1868;48.918;9.438;2023-03-18T13:16:52;5.10;;;0.93;;
3704;SDS011;1868;48.918;9.438;2023-03-18T13:19:21;2.67;;;1.00;;
3704;SDS011;1868;48.918;9.438;2023-03-18T13:21:51;1.90;;;0.70;;
3704;SDS011;1868;48.918;9.438;2023-03-18T13:24:45;1.77;;;1.23;;
3704;SDS011;1868;48.918;9.438;2023-03-18T13:27:29;3.57;;;1.00;;
3704;SDS011;1868;48.918;9.438;2023-03-18T13:30:17;2.30;;;0.97;;
3704;SDS011;1868;48.918;9.438;2023-03-18T13:33:06;1.57;;;1.00;;
3704;SDS011;1868;48.918;9.438;2023-03-18T13:36:02;1.17;;;1.07;;
3704;SDS011;1868;48.918;9.438;2023-03-18T13:39:05;1.40;;;0.90;;
3704;SDS011;1868;48.918;9.438;2023-03-18T13:41:52;2.30;;;1.10;;
3704;SDS011;1868;48.918;9.438;2023-03-18T13:44:43;1.40;;;0.70;;
3704;SDS011;1868;48.918;9.438;2023-03-18T13:47:17;1.33;;;0.80;;
3704;SDS011;1868;48.918;9.438;2023-03-18T13:49:57;2.33;;;0.80;;
3704;SDS011;1868;48.918;9.438;2023-03-18T13:52:32;0.93;;;0.80;;
3704;SDS011;1868;48.918;9.438;2023-03-18T13:55:10;1.77;;;0.90;;
3704;SDS011;1868;48.918;9.438;2023-03-18T13:57:54;1.87;;;0.80;;
3704;SDS011;1868;48.918;9.438;2023-03-18T14:00:28;1.33;;;0.77;;
3704;SDS011;1868;48.918;9.438;2023-03-18T14:08:49;2.60;;;1.07;;
3704;SDS011;1868;48.918;9.438;2023-03-18T14:17:28;1.90;;;1.10;;
3704;SDS011;1868;48.918;9.438;2023-03-18T14:20:15;1.73;;;1.27;;
3704;SDS011;1868;48.918;9.438;2023-03-18T14:22:52;1.70;;;1.20;;
3704;SDS011;1868;48.918;9.438;2023-03-18T14:25:32;1.33;;;0.80;;
3704;SDS011;1868;48.918;9.438;2023-03-18T14:28:19;1.47;;;0.90;;
3704;SDS011;1868;48.918;9.438;2023-03-18T14:30:54;3.33;;;1.10;;
3704;SDS011;1868;48.918;9.438;2023-03-18T14:33:50;1.27;;;0.80;;
3704;SDS011;1868;48.918;9.438;2023-03-18T14:36:47;1.10;;;0.93;;
3704;SDS011;1868;48.918;9.438;2023-03-18T14:40:03;1.53;;;1.13;;
3704;SDS011;1868;48.918;9.438;2023-03-18T14:42:43;1.97;;;1.10;;
3704;SDS011;1868;48.918;9.438;2023-03-18T14:45:20;1.43;;;1.00;;
3704;SDS011;1868;48.918;9.438;2023-03-18T14:47:53;1.90;;;0.97;;
3704;SDS011;1868;48.918;9.438;2023-03-18T14:50:27;2.07;;;1.30;;
3704;SDS011;1868;48.918;9.438;2023-03-18T14:53:08;1.10;;;1.00;;
3704;SDS011;1868;48.918;9.438;2023-03-18T14:55:44;2.10;;;1.07;;
3704;SDS011;1868;48.918;9.438;2023-03-18T14:58:13;1.43;;;1.20;;
3704;SDS011;1868;48.918;9.438;2023-03-18T15:00:43;4.27;;;1.27;;
3704;SDS011;1868;48.918;9.438;2023-03-18T15:03:19;4.73;;;1.50;;
3704;SDS011;1868;48.918;9.438;2023-03-18T15:05:50;1.73;;;1.47;;
3704;SDS011;1868;48.918;9.438;2023-03-18T15:08:24;7.93;;;0.93;;
3704;SDS011;1868;48.918;9.438;2023-03-18T15:11:13;4.57;;;2.43;;
3704;SDS011;1868;48.918;9.438;2023-03-18T15:13:45;0.80;;;0.80;;
3704;SDS011;1868;48.918;9.438;2023-03-18T15:16:16;2.10;;;1.23;;
3704;SDS011;1868;48.918;9.438;2023-03-18T15:18:50;1.67;;;1.10;;
3704;SDS011;1868;48.918;9.438;2023-03-18T15:21:21;1.30;;;1.20;;
3704;SDS011;1868;48.918;9.438;2023-03-18T15:23:53;2.73;;;1.20;;
3704;SDS011;1868;48.918;9.438;2023-03-18T15:26:28;1.43;;;1.07;;
3704;SDS011;1868;48.918;9.438;2023-03-18T15:28:57;2.37;;;1.27;;
3704;SDS011;1868;48.918;9.438;2023-03-18T15:31:30;1.70;;;0.97;;
3704;SDS011;1868;48.918;9.438;2023-03-18T15:34:05;2.40;;;1.20;;
3704;SDS011;1868;48.918;9.438;2023-03-18T15:36:41;1.67;;;0.77;;
3704;SDS011;1868;48.918;9.438;2023-03-18T15:39:17;2.10;;;1.40;;
3704;SDS011;1868;48.918;9.438;2023-03-18T15:41:59;2.93;;;1.27;;
3704;SDS011;1868;48.918;9.438;2023-03-18T15:44:29;2.40;;;1.00;;
3704;SDS011;1868;48.918;9.438;2023-03-18T15:47:02;3.10;;;1.20;;
3704;SDS011;1868;48.918;9.438;2023-03-18T15:49:41;1.23;;;1.13;;
3704;SDS011;1868;48.918;9.438;2023-03-18T15:52:18;1.53;;;1.20;;
3704;SDS011;1868;48.918;9.438;2023-03-18T15:54:51;1.60;;;1.27;;
3704;SDS011;1868;48.918;9.438;2023-03-18T15:57:22;1.63;;;1.53;;
3704;SDS011;1868;48.918;9.438;2023-03-18T15:59:56;1.00;;;0.87;;
3704;SDS011;1868;48.918;9.438;2023-03-18T16:02:24;1.93;;;1.10;;
3704;SDS011;1868;48.918;9.438;2023-03-18T16:05:02;2.27;;;0.90;;
3704;SDS011;1868;48.918;9.438;2023-03-18T16:07:34;1.67;;;1.13;;
3704;SDS011;1868;48.918;9.438;2023-03-18T16:10:02;1.53;;;1.10;;
3704;SDS011;1868;48.918;9.438;2023-03-18T16:12:33;1.70;;;1.10;;
3704;SDS011;1868;48.918;9.438;2023-03-18T16:15:02;2.40;;;0.93;;